Time;durP1;ratioP1;P1;durP2;ratioP2;P2;SDS_P1;SDS_P2;PMS_P1;PMS_P2;Temp;Humidity;BMP_temperature;BMP_pressure;BME280_temperature;BME280_humidity;BME280_pressure;Samples;Min_cycle;Max_cycle;Signal;HPM_P1;HPM_P2
2023/04/17 00:00:05;;;;;;;3.72;1.13;;;;;;;;;;4976776;28;20042;-64
2023/04/17 00:02:37;;;;;;;5.30;2.67;;;;;;;;;;4974958;28;20078;-64
2023/04/17 00:05:03;;;;;;;5.82;1.45;;;;;;;;;;4976054;28;20451;-65
2023/04/17 00:07:33;;;;;;;5.93;1.88;;;;;;;;;;4974787;28;20030;-65
2023/04/17 00:10:01;;;;;;;7.18;1.20;;;;;;;;;;4975883;28;20065;-65
2023/04/17 00:12:28;;;;;;;15.13;3.83;;;;;;;;;;4972292;28;20129;-65
2023/04/17 00:14:54;;;;;;;6.75;2.60;;;;;;;;;;4975119;28;20073;-65
2023/04/17 00:17:21;;;;;;;5.18;1.45;;;;;;;;;;4975774;28;20057;-64
2023/04/17 00:19:49;;;;;;;6.65;1.48;;;;;;;;;;4975714;28;20042;-63
2023/04/17 00:22:15;;;;;;;6.38;1.65;;;;;;;;;;4991605;28;20038;-63
2023/04/17 00:24:42;;;;;;;5.53;1.38;;;;;;;;;;4974061;28;20042;-65
2023/04/17 00:27:09;;;;;;;3.70;1.15;;;;;;;;;;4975568;28;20225;-66
2023/04/17 00:29:36;;;;;;;7.80;1.73;;;;;;;;;;4976085;28;20053;-64
2023/04/17 00:32:03;;;;;;;3.80;1.30;;;;;;;;;;4976234;28;20043;-63
2023/04/17 00:34:30;;;;;;;4.25;1.10;;;;;;;;;;4974756;28;20946;-63
2023/04/17 00:36:58;;;;;;;3.35;0.95;;;;;;;;;;4975746;28;20411;-63
2023/04/17 00:39:25;;;;;;;5.45;1.10;;;;;;;;;;4975148;28;20113;-62
2023/04/17 00:41:51;;;;;;;6.60;1.30;;;;;;;;;;4972308;28;20061;-63
2023/04/17 00:44:20;;;;;;;6.43;1.00;;;;;;;;;;4976065;28;20134;-70
2023/04/17 00:46:46;;;;;;;4.13;0.85;;;;;;;;;;4975645;28;20034;-63
2023/04/17 00:49:13;;;;;;;3.70;1.10;;;;;;;;;;4978148;28;20041;-62
2023/04/17 00:51:40;;;;;;;4.30;0.90;;;;;;;;;;4974182;28;20392;-64
2023/04/17 00:54:07;;;;;;;3.75;0.95;;;;;;;;;;4976087;28;20054;-62
2023/04/17 00:56:33;;;;;;;8.65;1.15;;;;;;;;;;4966789;28;20058;-64
2023/04/17 00:59:01;;;;;;;4.15;1.27;;;;;;;;;;4975897;28;20034;-61
2023/04/17 01:01:28;;;;;;;5.45;1.20;;;;;;;;;;4976587;28;21384;-60
2023/04/17 01:03:55;;;;;;;14.60;1.10;;;;;;;;;;4978344;28;20046;-60
2023/04/17 01:06:22;;;;;;;6.53;1.25;;;;;;;;;;4976129;28;20771;-61
2023/04/17 01:08:49;;;;;;;3.33;0.82;;;;;;;;;;4977847;28;20042;-64
2023/04/17 01:11:16;;;;;;;5.22;1.00;;;;;;;;;;4988618;28;20081;-63
2023/04/17 01:13:49;;;;;;;3.60;1.10;;;;;;;;;;4952118;28;20117;-62
2023/04/17 01:16:17;;;;;;;5.32;1.02;;;;;;;;;;4988250;28;20050;-66
2023/04/17 01:18:45;;;;;;;8.00;1.33;;;;;;;;;;4978336;28;21741;-68
2023/04/17 01:21:12;;;;;;;11.60;1.65;;;;;;;;;;4973540;28;20129;-63
2023/04/17 01:23:51;;;;;;;5.10;1.23;;;;;;;;;;4980466;28;20489;-58
2023/04/17 01:26:27;;;;;;;5.03;1.00;;;;;;;;;;4977695;28;20562;-63
2023/04/17 01:28:55;;;;;;;5.32;1.10;;;;;;;;;;4975807;28;20034;-60
2023/04/17 01:31:21;;;;;;;5.40;1.30;;;;;;;;;;4989229;28;20112;-64
2023/04/17 01:33:48;;;;;;;6.07;1.20;;;;;;;;;;4972434;28;20046;-62
2023/04/17 01:36:15;;;;;;;5.40;1.40;;;;;;;;;;4976704;28;20140;-63
2023/04/17 01:38:42;;;;;;;3.53;1.27;;;;;;;;;;4974183;28;20052;-62
2023/04/17 01:41:09;;;;;;;4.38;1.00;;;;;;;;;;4990980;28;20068;-60
2023/04/17 01:43:37;;;;;;;4.40;0.90;;;;;;;;;;4991643;28;20176;-62
2023/04/17 01:46:05;;;;;;;5.10;1.25;;;;;;;;;;4992743;28;20058;-59
2023/04/17 01:48:32;;;;;;;5.57;1.13;;;;;;;;;;4991745;28;20955;-61
2023/04/17 01:51:00;;;;;;;7.40;1.42;;;;;;;;;;4993269;28;20037;-63
2023/04/17 01:53:28;;;;;;;4.25;1.10;;;;;;;;;;4958774;28;20032;-63
2023/04/17 01:55:55;;;;;;;4.90;1.00;;;;;;;;;;4975020;28;20061;-62
2023/04/17 01:58:22;;;;;;;6.03;1.02;;;;;;;;;;4995036;28;20049;-62
2023/04/17 02:00:49;;;;;;;6.65;1.20;;;;;;;;;;4996111;28;20060;-62
2023/04/17 02:03:16;;;;;;;8.27;1.50;;;;;;;;;;4997074;28;20048;-63
2023/04/17 02:05:52;;;;;;;6.65;1.27;;;;;;;;;;4996357;28;20449;-60
2023/04/17 02:08:18;;;;;;;5.97;1.35;;;;;;;;;;5000231;28;20464;-66
2023/04/17 02:10:45;;;;;;;6.35;1.45;;;;;;;;;;4975337;28;20426;-64
2023/04/17 02:13:12;;;;;;;5.20;1.05;;;;;;;;;;4996875;28;20033;-62
2023/04/17 02:15:38;;;;;;;6.80;1.48;;;;;;;;;;4994267;28;20050;-60
2023/04/17 02:18:05;;;;;;;6.80;1.30;;;;;;;;;;4991767;28;20458;-63
2023/04/17 02:20:32;;;;;;;4.00;1.63;;;;;;;;;;4979016;28;20046;-61
2023/04/17 02:23:01;;;;;;;6.70;1.73;;;;;;;;;;4977631;28;20438;-62
2023/04/17 02:25:27;;;;;;;6.85;1.90;;;;;;;;;;4978584;28;20069;-62
2023/04/17 02:27:55;;;;;;;7.80;1.90;;;;;;;;;;4982852;28;20034;-62
2023/04/17 02:30:22;;;;;;;9.43;2.20;;;;;;;;;;4978815;28;20045;-61
2023/04/17 02:32:53;;;;;;;8.25;1.65;;;;;;;;;;4981100;28;20073;-59
2023/04/17 02:35:23;;;;;;;5.53;1.60;;;;;;;;;;4977538;28;20039;-62
2023/04/17 02:37:50;;;;;;;6.05;1.83;;;;;;;;;;4972366;28;20046;-62
2023/04/17 02:40:17;;;;;;;5.78;1.60;;;;;;;;;;4978665;28;20047;-60
2023/04/17 02:42:45;;;;;;;6.85;1.60;;;;;;;;;;4979140;28;20086;-60
2023/04/17 02:45:11;;;;;;;6.97;1.98;;;;;;;;;;4993306;28;20184;-60
2023/04/17 02:47:38;;;;;;;5.28;1.63;;;;;;;;;;4978675;28;20069;-60
2023/04/17 02:50:05;;;;;;;6.45;1.45;;;;;;;;;;4965588;28;20116;-58
2023/04/17 02:52:32;;;;;;;6.28;1.50;;;;;;;;;;4986647;28;20157;-61
2023/04/17 02:54:59;;;;;;;6.38;1.50;;;;;;;;;;4976891;28;20550;-60
2023/04/17 02:57:25;;;;;;;9.30;2.10;;;;;;;;;;4978120;28;20116;-60
2023/04/17 02:59:52;;;;;;;9.50;1.88;;;;;;;;;;4978004;28;20047;-62
2023/04/17 03:02:20;;;;;;;7.35;1.75;;;;;;;;;;4978674;28;20128;-65
2023/04/17 03:04:50;;;;;;;7.90;1.85;;;;;;;;;;4975493;28;20131;-62
2023/04/17 03:07:18;;;;;;;5.43;1.50;;;;;;;;;;4979667;28;20038;-60
2023/04/17 03:09:47;;;;;;;5.45;1.70;;;;;;;;;;4976706;28;20399;-61
2023/04/17 03:12:14;;;;;;;9.77;1.70;;;;;;;;;;4977685;28;20042;-61
2023/04/17 03:14:41;;;;;;;7.75;1.85;;;;;;;;;;4975628;28;20049;-59
2023/04/17 03:17:08;;;;;;;9.10;1.83;;;;;;;;;;4988155;28;20086;-62
2023/04/17 03:19:36;;;;;;;5.45;1.80;;;;;;;;;;4976450;28;20038;-63
2023/04/17 03:22:03;;;;;;;4.03;1.27;;;;;;;;;;4977733;28;20142;-61
2023/04/17 03:24:30;;;;;;;5.40;1.70;;;;;;;;;;4976343;28;20049;-63
2023/04/17 03:26:57;;;;;;;4.85;1.83;;;;;;;;;;4973434;28;20689;-64
2023/04/17 03:29:24;;;;;;;13.30;1.90;;;;;;;;;;4976778;28;20870;-61
2023/04/17 03:31:50;;;;;;;4.35;1.23;;;;;;;;;;4978485;28;20049;-62
2023/04/17 03:34:17;;;;;;;7.53;1.45;;;;;;;;;;4977434;28;20043;-62
2023/04/17 03:36:44;;;;;;;4.95;1.20;;;;;;;;;;4947850;28;20046;-61
2023/04/17 03:39:11;;;;;;;4.82;1.23;;;;;;;;;;4959137;28;20089;-60
2023/04/17 03:41:37;;;;;;;6.82;1.25;;;;;;;;;;4976438;28;20046;-62
2023/04/17 03:44:05;;;;;;;5.53;1.00;;;;;;;;;;4977353;28;20039;-61
2023/04/17 03:46:51;;;;;;;6.22;1.08;;;;;;;;;;4973441;28;20058;-63
2023/04/17 03:49:18;;;;;;;3.60;0.90;;;;;;;;;;4968817;28;20465;-65
2023/04/17 03:51:44;;;;;;;11.05;1.75;;;;;;;;;;4952860;28;20043;-61
2023/04/17 03:54:11;;;;;;;5.72;1.02;;;;;;;;;;4968304;28;20034;-62
2023/04/17 03:56:38;;;;;;;7.35;1.20;;;;;;;;;;4972615;28;20509;-61
2023/04/17 03:59:05;;;;;;;5.45;1.08;;;;;;;;;;4968601;28;20649;-60
2023/04/17 04:01:31;;;;;;;6.93;1.00;;;;;;;;;;4972828;28;20039;-61
2023/04/17 04:04:00;;;;;;;4.15;1.02;;;;;;;;;;4956381;28;20039;-62
2023/04/17 04:06:28;;;;;;;11.57;1.30;;;;;;;;;;4946494;28;20129;-60
2023/04/17 04:08:55;;;;;;;6.38;1.45;;;;;;;;;;4973109;28;20049;-60
2023/04/17 04:11:22;;;;;;;3.95;1.05;;;;;;;;;;4971746;28;20499;-60
2023/04/17 04:13:49;;;;;;;7.15;1.10;;;;;;;;;;4973818;28;20093;-64
2023/04/17 04:16:16;;;;;;;6.57;1.13;;;;;;;;;;4972547;28;20175;-64
2023/04/17 04:18:42;;;;;;;7.47;1.20;;;;;;;;;;4975055;28;20041;-64
2023/04/17 04:21:10;;;;;;;3.55;1.15;;;;;;;;;;4976938;28;20392;-63
2023/04/17 04:23:40;;;;;;;5.15;1.27;;;;;;;;;;4975796;28;20053;-61
2023/04/17 04:26:06;;;;;;;5.70;1.20;;;;;;;;;;4977223;28;20042;-63
2023/04/17 04:28:33;;;;;;;5.00;1.33;;;;;;;;;;4975689;28;20077;-62
2023/04/17 04:31:01;;;;;;;4.97;0.93;;;;;;;;;;4977064;28;20039;-60
2023/04/17 04:33:28;;;;;;;3.00;1.00;;;;;;;;;;4974561;28;20042;-61
2023/04/17 04:35:59;;;;;;;8.32;1.20;;;;;;;;;;4987266;28;20444;-61
2023/04/17 04:38:29;;;;;;;3.33;1.10;;;;;;;;;;4974829;28;20026;-60
2023/04/17 04:41:00;;;;;;;4.90;1.10;;;;;;;;;;4988154;28;20455;-59
2023/04/17 04:43:28;;;;;;;6.00;1.00;;;;;;;;;;4975688;28;20100;-61
2023/04/17 04:45:55;;;;;;;4.32;1.02;;;;;;;;;;4976316;28;20061;-60
2023/04/17 04:48:42;;;;;;;4.63;0.95;;;;;;;;;;4987506;28;20038;-62
2023/04/17 04:51:09;;;;;;;3.72;1.20;;;;;;;;;;4988625;28;20121;-59
2023/04/17 04:53:37;;;;;;;10.70;1.33;;;;;;;;;;4985518;28;20034;-62
2023/04/17 04:56:23;;;;;;;3.58;1.10;;;;;;;;;;4986994;28;20085;-60
2023/04/17 04:58:51;;;;;;;4.30;1.00;;;;;;;;;;4946152;28;20063;-61
2023/04/17 05:01:18;;;;;;;5.72;1.20;;;;;;;;;;4970169;28;20435;-64
2023/04/17 05:03:45;;;;;;;4.32;1.10;;;;;;;;;;4969995;28;20954;-59
2023/04/17 05:06:12;;;;;;;6.35;0.98;;;;;;;;;;4969192;28;20276;-61
2023/04/17 05:08:41;;;;;;;5.10;1.00;;;;;;;;;;4967122;28;20053;-59
2023/04/17 05:11:08;;;;;;;4.18;1.10;;;;;;;;;;4972535;28;20602;-64
2023/04/17 05:13:35;;;;;;;5.03;0.90;;;;;;;;;;4970336;28;20181;-61
2023/04/17 05:16:02;;;;;;;2.88;0.85;;;;;;;;;;4953812;28;20050;-60
2023/04/17 05:18:29;;;;;;;7.43;0.90;;;;;;;;;;4969702;28;20152;-60
2023/04/17 05:20:55;;;;;;;3.72;0.90;;;;;;;;;;4956366;28;20839;-59
2023/04/17 05:23:22;;;;;;;4.20;1.00;;;;;;;;;;4971815;28;20162;-62
2023/04/17 05:25:49;;;;;;;2.78;0.88;;;;;;;;;;4947970;28;20081;-62
2023/04/17 05:28:16;;;;;;;5.78;1.15;;;;;;;;;;4959018;28;20050;-61
2023/04/17 05:30:42;;;;;;;5.13;0.70;;;;;;;;;;4977798;28;20100;-67
2023/04/17 05:33:09;;;;;;;5.20;0.80;;;;;;;;;;4980003;28;20038;-61
2023/04/17 05:35:37;;;;;;;6.25;0.90;;;;;;;;;;4989936;28;20050;-60
2023/04/17 05:38:06;;;;;;;7.93;1.30;;;;;;;;;;4980679;28;20196;-62
2023/04/17 05:40:33;;;;;;;4.45;1.02;;;;;;;;;;4979258;28;20389;-61
2023/04/17 05:43:10;;;;;;;2.63;0.70;;;;;;;;;;4982344;28;20102;-59
2023/04/17 05:45:36;;;;;;;4.60;1.00;;;;;;;;;;4976805;28;20069;-60
2023/04/17 05:48:03;;;;;;;5.03;1.00;;;;;;;;;;4978543;28;20118;-59
2023/04/17 05:50:30;;;;;;;5.68;1.00;;;;;;;;;;4975376;28;20045;-61
2023/04/17 05:52:57;;;;;;;7.57;1.10;;;;;;;;;;4983110;28;20125;-62
2023/04/17 05:55:23;;;;;;;4.35;1.00;;;;;;;;;;4979325;28;20515;-62
2023/04/17 05:57:50;;;;;;;2.97;0.90;;;;;;;;;;4979543;28;20046;-63
2023/04/17 06:00:17;;;;;;;4.30;0.80;;;;;;;;;;4979220;28;20700;-59
2023/04/17 06:02:44;;;;;;;3.60;0.88;;;;;;;;;;4968219;28;20065;-64
2023/04/17 06:05:10;;;;;;;2.03;0.68;;;;;;;;;;4971100;28;20038;-62
2023/04/17 06:07:37;;;;;;;3.78;0.90;;;;;;;;;;4978047;28;20042;-61
2023/04/17 06:10:05;;;;;;;4.30;0.95;;;;;;;;;;4995102;28;20034;-60
2023/04/17 06:12:32;;;;;;;2.90;0.70;;;;;;;;;;4978877;28;20047;-61
2023/04/17 06:14:58;;;;;;;2.60;0.70;;;;;;;;;;4979574;28;20752;-62
2023/04/17 06:17:25;;;;;;;5.55;0.85;;;;;;;;;;4978137;28;20050;-61
2023/04/17 06:20:12;;;;;;;3.10;0.70;;;;;;;;;;4989595;28;20088;-60
2023/04/17 06:22:43;;;;;;;2.65;0.85;;;;;;;;;;4974004;28;20085;-60
2023/04/17 06:25:09;;;;;;;2.33;0.70;;;;;;;;;;4992296;28;20554;-63
2023/04/17 06:27:36;;;;;;;5.60;0.63;;;;;;;;;;4992549;28;20141;-61
2023/04/17 06:30:03;;;;;;;4.30;1.00;;;;;;;;;;4991363;28;20040;-61
2023/04/17 06:32:30;;;;;;;2.25;0.80;;;;;;;;;;4990550;28;20038;-62
2023/04/17 06:34:56;;;;;;;5.00;0.80;;;;;;;;;;4990850;28;20061;-61
2023/04/17 06:37:23;;;;;;;3.13;0.70;;;;;;;;;;4990112;28;20060;-61
2023/04/17 06:39:50;;;;;;;5.80;0.80;;;;;;;;;;4991330;28;20788;-62
2023/04/17 06:42:19;;;;;;;3.17;0.70;;;;;;;;;;4972345;28;20038;-62
2023/04/17 06:44:46;;;;;;;3.35;0.80;;;;;;;;;;4990498;28;20064;-62
2023/04/17 06:47:12;;;;;;;7.25;1.13;;;;;;;;;;4974503;28;20058;-62
2023/04/17 06:49:59;;;;;;;2.50;0.80;;;;;;;;;;4972907;28;20046;-62
2023/04/17 06:52:25;;;;;;;3.83;0.90;;;;;;;;;;4944814;28;20042;-62
2023/04/17 06:54:56;;;;;;;3.25;1.00;;;;;;;;;;4955139;28;20050;-63
2023/04/17 06:57:23;;;;;;;4.32;0.93;;;;;;;;;;4939721;28;20138;-62
2023/04/17 06:59:50;;;;;;;3.17;0.93;;;;;;;;;;4955739;28;20587;-63
2023/04/17 07:02:17;;;;;;;5.22;1.00;;;;;;;;;;4947623;28;20047;-60
2023/04/17 07:04:43;;;;;;;2.20;0.85;;;;;;;;;;4945419;28;22426;-61
2023/04/17 07:07:33;;;;;;;2.97;0.95;;;;;;;;;;4933996;28;20440;-61
2023/04/17 07:10:00;;;;;;;3.00;0.90;;;;;;;;;;4932635;28;20100;-63
2023/04/17 07:12:28;;;;;;;3.17;1.25;;;;;;;;;;4936191;28;20106;-60
2023/04/17 07:14:54;;;;;;;3.95;1.13;;;;;;;;;;4921269;29;20046;-61
2023/04/17 07:17:21;;;;;;;4.60;1.08;;;;;;;;;;4931723;28;20182;-61
2023/04/17 07:19:48;;;;;;;2.88;1.17;;;;;;;;;;4914554;29;20050;-62
2023/04/17 07:22:15;;;;;;;4.57;1.08;;;;;;;;;;4937279;28;20039;-61
2023/04/17 07:24:43;;;;;;;3.30;1.20;;;;;;;;;;4914048;28;20126;-63
2023/04/17 07:27:10;;;;;;;4.07;1.20;;;;;;;;;;4945615;28;20259;-63
2023/04/17 07:29:36;;;;;;;5.05;1.08;;;;;;;;;;4973347;28;20566;-63
2023/04/17 07:32:05;;;;;;;3.30;0.98;;;;;;;;;;4972975;28;20042;-61
2023/04/17 07:34:33;;;;;;;3.92;1.23;;;;;;;;;;4973352;28;20038;-63
2023/04/17 07:37:19;;;;;;;4.38;1.02;;;;;;;;;;4960607;28;20176;-68
2023/04/17 07:39:48;;;;;;;3.90;1.05;;;;;;;;;;4972088;28;20057;-62
2023/04/17 07:42:15;;;;;;;4.50;1.00;;;;;;;;;;4971311;28;20039;-60
2023/04/17 07:44:42;;;;;;;3.63;1.20;;;;;;;;;;4977465;28;20058;-60
2023/04/17 07:47:08;;;;;;;4.03;1.00;;;;;;;;;;4979740;28;20042;-60
2023/04/17 07:49:35;;;;;;;3.35;1.08;;;;;;;;;;4987925;28;20045;-61
2023/04/17 07:52:02;;;;;;;4.35;1.00;;;;;;;;;;4988538;28;20053;-62
2023/04/17 07:54:31;;;;;;;6.07;1.10;;;;;;;;;;4986149;28;20042;-61
2023/04/17 07:57:01;;;;;;;3.00;0.82;;;;;;;;;;4974966;28;20050;-62
2023/04/17 07:59:28;;;;;;;4.38;1.23;;;;;;;;;;4968366;28;20137;-61
2023/04/17 08:01:56;;;;;;;3.78;1.10;;;;;;;;;;4972761;28;20080;-61
2023/04/17 08:04:23;;;;;;;4.40;1.30;;;;;;;;;;4972156;28;20069;-62
2023/04/17 08:07:10;;;;;;;5.03;0.95;;;;;;;;;;4954607;28;20062;-63
2023/04/17 08:09:36;;;;;;;5.10;1.20;;;;;;;;;;4953483;28;20070;-60
2023/04/17 08:12:03;;;;;;;3.45;1.13;;;;;;;;;;4953805;28;20038;-62
2023/04/17 08:14:50;;;;;;;3.60;0.80;;;;;;;;;;4915762;28;20184;-61
2023/04/17 08:17:21;;;;;;;3.13;1.00;;;;;;;;;;4915668;28;20059;-63
2023/04/17 08:19:57;;;;;;;4.82;1.02;;;;;;;;;;4898280;29;20297;-60
2023/04/17 08:22:27;;;;;;;3.58;0.90;;;;;;;;;;4903172;28;20121;-62
2023/04/17 08:24:57;;;;;;;5.00;1.00;;;;;;;;;;4914717;29;20825;-62
2023/04/17 08:27:24;;;;;;;4.93;0.80;;;;;;;;;;4912056;28;20043;-63
2023/04/17 08:29:52;;;;;;;5.47;1.00;;;;;;;;;;4916383;29;20051;-61
2023/04/17 08:32:20;;;;;;;2.45;0.75;;;;;;;;;;4916551;28;20164;-62
2023/04/17 08:34:46;;;;;;;2.83;0.90;;;;;;;;;;4916032;29;20043;-61
2023/04/17 08:37:13;;;;;;;6.38;0.90;;;;;;;;;;4934837;28;20046;-62
2023/04/17 08:39:40;;;;;;;2.92;0.98;;;;;;;;;;4970544;28;20046;-60
2023/04/17 08:42:09;;;;;;;3.88;0.80;;;;;;;;;;4972137;28;20459;-62
2023/04/17 08:44:36;;;;;;;3.97;0.85;;;;;;;;;;4972155;28;20074;-63
2023/04/17 08:47:03;;;;;;;3.63;0.80;;;;;;;;;;4944525;28;20046;-60
2023/04/17 08:49:30;;;;;;;4.85;0.93;;;;;;;;;;4962827;28;20179;-60
2023/04/17 08:51:57;;;;;;;2.35;0.70;;;;;;;;;;4980029;28;20042;-59
2023/04/17 08:54:26;;;;;;;3.17;1.10;;;;;;;;;;4958347;28;20042;-61
2023/04/17 08:56:53;;;;;;;4.63;1.10;;;;;;;;;;4964043;28;20050;-61
2023/04/17 08:59:21;;;;;;;4.43;1.00;;;;;;;;;;4962794;28;20053;-62
2023/04/17 09:02:03;;;;;;;3.28;0.90;;;;;;;;;;4962520;28;20499;-60
2023/04/17 09:04:50;;;;;;;4.00;1.00;;;;;;;;;;4964195;28;20255;-61
2023/04/17 09:07:17;;;;;;;3.70;0.70;;;;;;;;;;4964153;28;20206;-59
2023/04/17 09:09:55;;;;;;;2.80;0.73;;;;;;;;;;4948573;28;21066;-61
2023/04/17 09:12:23;;;;;;;3.38;0.80;;;;;;;;;;4964691;28;20038;-63
2023/04/17 09:14:50;;;;;;;4.05;0.80;;;;;;;;;;4965112;28;20062;-61
2023/04/17 09:17:17;;;;;;;4.15;1.02;;;;;;;;;;4963899;28;20046;-61
2023/04/17 09:20:11;;;;;;;3.95;1.10;;;;;;;;;;4954584;28;20572;-61
2023/04/17 09:22:39;;;;;;;3.42;1.05;;;;;;;;;;4941161;28;20062;-65
2023/04/17 09:25:15;;;;;;;4.75;1.13;;;;;;;;;;4945048;28;20096;-61
2023/04/17 09:27:42;;;;;;;5.70;1.02;;;;;;;;;;4965308;28;20046;-61
2023/04/17 09:30:09;;;;;;;2.80;0.82;;;;;;;;;;4955895;28;20078;-63
2023/04/17 09:32:36;;;;;;;3.45;1.02;;;;;;;;;;4985983;28;20120;-63
2023/04/17 09:35:04;;;;;;;3.60;0.90;;;;;;;;;;4992355;28;20045;-61
2023/04/17 09:37:48;;;;;;;5.95;1.27;;;;;;;;;;4987572;28;20140;-60
2023/04/17 09:40:15;;;;;;;5.00;1.02;;;;;;;;;;4982644;28;20434;-61
2023/04/17 09:43:02;;;;;;;4.45;0.95;;;;;;;;;;4967591;28;20144;-61
2023/04/17 09:45:36;;;;;;;4.15;1.10;;;;;;;;;;4970304;28;20076;-61
2023/04/17 09:48:06;;;;;;;3.50;1.00;;;;;;;;;;4975569;28;20034;-60
2023/04/17 09:50:33;;;;;;;4.50;1.27;;;;;;;;;;4974259;28;20085;-62
2023/04/17 09:53:01;;;;;;;8.05;1.25;;;;;;;;;;4975980;28;20039;-59
2023/04/17 09:55:28;;;;;;;7.80;0.98;;;;;;;;;;4975247;28;20452;-63
2023/04/17 09:57:56;;;;;;;5.93;1.00;;;;;;;;;;4969387;28;20116;-62
2023/04/17 10:00:25;;;;;;;3.83;1.00;;;;;;;;;;4974866;28;20058;-64
2023/04/17 10:02:52;;;;;;;4.65;1.10;;;;;;;;;;4958546;28;20037;-61
2023/04/17 10:05:20;;;;;;;3.80;1.00;;;;;;;;;;4993192;28;20398;-60
2023/04/17 10:07:46;;;;;;;4.15;1.02;;;;;;;;;;4976843;28;20485;-62
2023/04/17 10:10:30;;;;;;;2.90;0.90;;;;;;;;;;4968332;28;20038;-63
2023/04/17 10:12:58;;;;;;;5.13;1.05;;;;;;;;;;4964562;28;20046;-61
2023/04/17 10:15:26;;;;;;;3.78;0.80;;;;;;;;;;4955987;28;20039;-62
2023/04/17 10:18:21;;;;;;;5.35;0.88;;;;;;;;;;4953489;28;20043;-61
2023/04/17 10:20:49;;;;;;;3.63;1.10;;;;;;;;;;4945295;28;20051;-64
2023/04/17 10:23:26;;;;;;;3.92;0.80;;;;;;;;;;4954039;28;20141;-61
2023/04/17 10:26:14;;;;;;;2.80;0.75;;;;;;;;;;4952591;28;20053;-62
2023/04/17 10:28:48;;;;;;;3.28;0.85;;;;;;;;;;4953286;28;20495;-61
2023/04/17 10:31:15;;;;;;;5.68;0.80;;;;;;;;;;4953121;28;20083;-63
2023/04/17 10:33:51;;;;;;;6.45;0.80;;;;;;;;;;4953667;28;20055;-61
2023/04/17 10:36:36;;;;;;;5.55;0.90;;;;;;;;;;4950636;28;20093;-61
2023/04/17 10:39:12;;;;;;;1.95;0.60;;;;;;;;;;4952790;28;20034;-62
2023/04/17 10:41:57;;;;;;;2.88;0.77;;;;;;;;;;4952449;28;20038;-59
2023/04/17 10:44:43;;;;;;;7.55;0.80;;;;;;;;;;4952766;28;20039;-62
2023/04/17 10:47:13;;;;;;;4.70;0.90;;;;;;;;;;4932493;29;20054;-60
2023/04/17 10:49:59;;;;;;;6.80;0.90;;;;;;;;;;4949058;28;20043;-65
2023/04/17 10:52:33;;;;;;;3.55;0.85;;;;;;;;;;4939714;28;20133;-64
2023/04/17 10:55:06;;;;;;;2.80;0.80;;;;;;;;;;4955108;28;20693;-60
2023/04/17 10:57:33;;;;;;;;;;;;;;;;;;4956117;28;20058;-60
2023/04/17 11:00:15;;;;;;;3.10;0.80;;;;;;;;;;4946660;28;19929;-64
2023/04/17 11:02:49;;;;;;;2.88;0.70;;;;;;;;;;4954918;28;20042;-61
2023/04/17 11:05:17;;;;;;;4.35;0.90;;;;;;;;;;4956062;28;20038;-62
2023/04/17 11:07:49;;;;;;;3.65;0.90;;;;;;;;;;4936373;28;20400;-63
2023/04/17 11:10:22;;;;;;;8.10;1.08;;;;;;;;;;4938285;28;20089;-63
2023/04/17 11:12:57;;;;;;;2.90;0.80;;;;;;;;;;4927674;28;20054;-61
2023/04/17 11:15:27;;;;;;;3.97;1.10;;;;;;;;;;4951962;28;20053;-63
2023/04/17 11:17:55;;;;;;;10.45;0.80;;;;;;;;;;4952182;28;20058;-63
2023/04/17 11:20:22;;;;;;;3.78;0.77;;;;;;;;;;4954670;28;20050;-65
2023/04/17 11:22:49;;;;;;;3.92;0.75;;;;;;;;;;4953411;28;20039;-63
2023/04/17 11:25:37;;;;;;;2.95;0.70;;;;;;;;;;4934639;28;20051;-62
2023/04/17 11:28:06;;;;;;;4.18;0.93;;;;;;;;;;4938610;28;20065;-63
2023/04/17 11:30:34;;;;;;;9.68;1.13;;;;;;;;;;4936043;28;20039;-61
2023/04/17 11:33:02;;;;;;;8.20;1.40;;;;;;;;;;4879693;29;21770;-61
2023/04/17 11:35:36;;;;;;;5.65;0.90;;;;;;;;;;4936119;28;20043;-61
2023/04/17 11:38:11;;;;;;;3.90;0.80;;;;;;;;;;4940140;28;20106;-63
2023/04/17 11:40:48;;;;;;;4.88;1.13;;;;;;;;;;4939720;28;20062;-63
2023/04/17 11:43:35;;;;;;;4.65;0.80;;;;;;;;;;4912391;29;20051;-63
2023/04/17 11:46:04;;;;;;;12.15;1.00;;;;;;;;;;4903359;29;21032;-62
2023/04/17 11:48:31;;;;;;;5.32;1.10;;;;;;;;;;4910501;29;20342;-61
2023/04/17 11:51:03;;;;;;;6.88;1.35;;;;;;;;;;4888472;29;20032;-63
2023/04/17 11:53:35;;;;;;;6.43;1.38;;;;;;;;;;4895532;29;20058;-62
2023/04/17 11:56:13;;;;;;;4.78;1.25;;;;;;;;;;4909218;29;20140;-63
2023/04/17 11:58:49;;;;;;;9.63;1.10;;;;;;;;;;4911349;29;20078;-62
2023/04/17 12:01:16;;;;;;;8.02;1.23;;;;;;;;;;4908339;29;20036;-61
2023/04/17 12:03:46;;;;;;;4.97;1.23;;;;;;;;;;4924509;28;20054;-62
2023/04/17 12:06:13;;;;;;;11.45;1.23;;;;;;;;;;4940353;28;20042;-64
2023/04/17 12:08:49;;;;;;;4.72;0.95;;;;;;;;;;4943411;28;20046;-64
2023/04/17 12:11:28;;;;;;;6.10;0.85;;;;;;;;;;4938546;28;20051;-65
2023/04/17 12:13:55;;;;;;;7.93;1.00;;;;;;;;;;4937923;28;20042;-64
2023/04/17 12:16:41;;;;;;;10.68;1.10;;;;;;;;;;4954325;28;20058;-65
2023/04/17 12:19:12;;;;;;;8.25;1.60;;;;;;;;;;4914245;29;20091;-65
2023/04/17 12:21:38;;;;;;;10.15;2.28;;;;;;;;;;4930850;28;20054;-62
2023/04/17 12:24:05;;;;;;;6.38;1.50;;;;;;;;;;4938157;28;20073;-62
2023/04/17 12:26:31;;;;;;;6.30;1.30;;;;;;;;;;4919624;28;20102;-62
2023/04/17 12:28:58;;;;;;;8.82;1.30;;;;;;;;;;4936075;28;20059;-63
2023/04/17 12:31:25;;;;;;;6.65;1.05;;;;;;;;;;4923278;28;20201;-63
2023/04/17 12:33:51;;;;;;;11.25;1.23;;;;;;;;;;4937972;28;20046;-67
2023/04/17 12:36:18;;;;;;;9.70;1.00;;;;;;;;;;4921001;28;20044;-69
2023/04/17 12:38:46;;;;;;;11.75;1.50;;;;;;;;;;4947722;28;20032;-67
2023/04/17 12:41:12;;;;;;;12.80;1.27;;;;;;;;;;4941556;28;20061;-63
2023/04/17 12:43:39;;;;;;;11.73;1.77;;;;;;;;;;4936321;28;20098;-63
2023/04/17 12:46:06;;;;;;;9.32;2.40;;;;;;;;;;4938878;28;20054;-62
2023/04/17 12:48:57;;;;;;;15.43;4.78;;;;;;;;;;4919250;29;20047;-60
2023/04/17 12:51:26;;;;;;;8.45;3.03;;;;;;;;;;4919079;29;20122;-63
2023/04/17 12:53:53;;;;;;;5.05;1.50;;;;;;;;;;4917421;29;20529;-64
2023/04/17 12:56:20;;;;;;;3.90;0.93;;;;;;;;;;4940256;28;20049;-63
2023/04/17 12:58:47;;;;;;;4.03;0.73;;;;;;;;;;4973521;28;20049;-64
2023/04/17 13:01:33;;;;;;;3.03;0.80;;;;;;;;;;4954938;28;20042;-61
2023/04/17 13:04:00;;;;;;;7.03;1.13;;;;;;;;;;4969518;28;20507;-61
2023/04/17 13:06:46;;;;;;;7.80;0.98;;;;;;;;;;4965594;28;20038;-63
2023/04/17 13:09:13;;;;;;;8.48;0.90;;;;;;;;;;4972075;28;20121;-63
2023/04/17 13:11:40;;;;;;;3.63;0.80;;;;;;;;;;4976454;28;20612;-62
2023/04/17 13:14:07;;;;;;;4.13;0.65;;;;;;;;;;4979527;28;20042;-63
2023/04/17 13:16:34;;;;;;;7.13;1.00;;;;;;;;;;4952435;28;20050;-64
2023/04/17 13:19:01;;;;;;;8.70;1.25;;;;;;;;;;4973994;28;21985;-63
2023/04/17 13:21:28;;;;;;;9.10;1.20;;;;;;;;;;4938013;28;21950;-63
2023/04/17 13:23:54;;;;;;;8.65;1.48;;;;;;;;;;4938359;28;20038;-64
2023/04/17 13:26:21;;;;;;;6.75;1.67;;;;;;;;;;4936989;28;20879;-64
2023/04/17 13:28:49;;;;;;;12.55;1.73;;;;;;;;;;4917515;28;20046;-63
2023/04/17 13:31:16;;;;;;;8.63;1.15;;;;;;;;;;4937575;28;20133;-64
2023/04/17 13:33:43;;;;;;;10.15;1.45;;;;;;;;;;4971908;28;20042;-64
2023/04/17 13:36:10;;;;;;;10.73;1.38;;;;;;;;;;4957333;28;20042;-64
2023/04/17 13:38:36;;;;;;;8.45;1.27;;;;;;;;;;4973766;28;20038;-66
2023/04/17 13:41:03;;;;;;;13.90;1.40;;;;;;;;;;4956398;28;20435;-63
2023/04/17 13:43:30;;;;;;;13.50;1.35;;;;;;;;;;4977722;28;20039;-60
2023/04/17 13:45:56;;;;;;;8.13;1.70;;;;;;;;;;4997729;28;20521;-62
2023/04/17 13:48:23;;;;;;;5.30;1.40;;;;;;;;;;4997545;28;21498;-64
2023/04/17 13:50:50;;;;;;;14.35;2.17;;;;;;;;;;4978802;28;20661;-63
2023/04/17 13:53:19;;;;;;;11.27;1.70;;;;;;;;;;5000931;28;20060;-65
2023/04/17 13:55:47;;;;;;;13.15;1.95;;;;;;;;;;5001430;28;20070;-63
2023/04/17 13:58:13;;;;;;;13.02;1.95;;;;;;;;;;4982861;28;20521;-63
2023/04/17 14:00:40;;;;;;;12.63;1.90;;;;;;;;;;4997022;28;20061;-64
2023/04/17 14:03:07;;;;;;;15.00;1.67;;;;;;;;;;5000855;28;20042;-64
2023/04/17 14:05:34;;;;;;;11.00;1.70;;;;;;;;;;5000406;28;20076;-64
2023/04/17 14:08:01;;;;;;;12.43;1.60;;;;;;;;;;4979276;28;20120;-63
2023/04/17 14:10:28;;;;;;;8.93;1.38;;;;;;;;;;4976280;28;20074;-64
2023/04/17 14:12:54;;;;;;;10.10;1.40;;;;;;;;;;4967059;28;20042;-63
2023/04/17 14:15:21;;;;;;;10.80;1.85;;;;;;;;;;4977773;28;20972;-64
2023/04/17 14:17:48;;;;;;;6.65;1.35;;;;;;;;;;4978365;28;20050;-64
2023/04/17 14:20:17;;;;;;;8.35;1.48;;;;;;;;;;4978074;28;20034;-64
2023/04/17 14:22:44;;;;;;;7.78;1.33;;;;;;;;;;4977134;28;20049;-65
2023/04/17 14:25:11;;;;;;;16.60;1.65;;;;;;;;;;4969881;28;20042;-64
2023/04/17 14:27:37;;;;;;;9.90;1.60;;;;;;;;;;4977703;28;20043;-64
2023/04/17 14:30:04;;;;;;;15.50;1.98;;;;;;;;;;4975711;28;20049;-64
2023/04/17 14:32:31;;;;;;;11.70;1.77;;;;;;;;;;4977855;28;20088;-63
2023/04/17 14:34:58;;;;;;;10.07;1.92;;;;;;;;;;4978022;28;20058;-63
2023/04/17 14:37:25;;;;;;;5.38;1.08;;;;;;;;;;4965563;28;20100;-63
2023/04/17 14:39:52;;;;;;;6.47;1.08;;;;;;;;;;4978275;28;20042;-64
2023/04/17 14:42:18;;;;;;;8.50;1.27;;;;;;;;;;4984589;28;20510;-63
2023/04/17 14:44:45;;;;;;;6.53;1.40;;;;;;;;;;4982192;28;20112;-63
2023/04/17 14:47:12;;;;;;;10.30;1.60;;;;;;;;;;4976294;28;20051;-64
2023/04/17 14:49:39;;;;;;;4.43;1.05;;;;;;;;;;4975321;28;20057;-62
2023/04/17 14:52:05;;;;;;;9.35;1.23;;;;;;;;;;4970135;28;20404;-62
2023/04/17 14:54:52;;;;;;;5.88;1.20;;;;;;;;;;4975883;28;20081;-64